Time;durP1;ratioP1;P1;durP2;ratioP2;P2;SDS_P1;SDS_P2;PMS_P1;PMS_P2;Temp;Humidity;BMP_temperature;BMP_pressure;BME280_temperature;BME280_humidity;BME280_pressure;Samples;Min_cycle;Max_cycle;Signal;HPM_P1;HPM_P2
2022/09/20 00:00:41;;;;;;;1.20;1.10;;;;;;;17.22;93.59;101552.72;5092106;28;20038;-84
2022/09/20 00:03:08;;;;;;;1.30;1.05;;;;;;;17.22;94.06;101550.88;5091600;28;20024;-84
2022/09/20 00:05:34;;;;;;;2.75;1.52;;;;;;;17.19;93.60;101553.78;5091807;28;20028;-84
2022/09/20 00:08:01;;;;;;;2.47;1.23;;;;;;;17.18;93.58;101561.84;5092287;28;20103;-84
2022/09/20 00:10:26;;;;;;;2.55;1.77;;;;;;;17.21;93.85;101558.97;5091775;28;20069;-84
2022/09/20 00:12:52;;;;;;;2.53;1.75;;;;;;;17.23;93.30;101549.91;5091808;28;20028;-84
2022/09/20 00:15:17;;;;;;;3.20;1.38;;;;;;;17.25;93.46;101555.09;5091730;28;20059;-84
2022/09/20 00:17:42;;;;;;;3.03;1.30;;;;;;;17.22;93.75;101550.06;5092144;28;20115;-84
2022/09/20 00:20:08;;;;;;;2.30;1.30;;;;;;;17.16;94.12;101559.34;5090693;28;20103;-84
2022/09/20 00:22:33;;;;;;;2.85;1.52;;;;;;;17.20;94.47;101557.25;5091465;28;20032;-82
2022/09/20 00:24:59;;;;;;;3.35;1.80;;;;;;;17.30;92.32;101555.59;5091800;28;20073;-84
2022/09/20 00:27:24;;;;;;;3.88;2.35;;;;;;;17.26;93.34;101562.13;5091607;28;20024;-83
2022/09/20 00:29:49;;;;;;;2.97;2.13;;;;;;;17.39;93.15;101554.88;5091687;28;20437;-83
2022/09/20 00:32:14;;;;;;;2.30;1.70;;;;;;;17.47;92.68;101556.09;5091916;28;20445;-83
2022/09/20 00:37:24;;;;;;;2.40;1.75;;;;;;;17.52;92.36;101553.91;5091579;28;20046;-83
2022/09/20 00:39:49;;;;;;;1.60;1.40;;;;;;;17.51;92.87;101553.06;5091740;28;20099;-83
2022/09/20 00:42:15;;;;;;;3.90;1.80;;;;;;;17.37;93.69;101555.97;5093688;28;20471;-83
2022/09/20 00:44:55;;;;;;;3.33;1.70;;;;;;;17.45;93.55;101558.84;5093918;28;20031;-83
2022/09/20 00:47:45;;;;;;;2.50;1.63;;;;;;;17.43;93.34;101560.78;5094965;28;20024;-83
2022/09/20 00:50:16;;;;;;;2.08;1.67;;;;;;;17.39;94.28;101552.22;5094528;28;20032;-83
2022/09/20 00:52:44;;;;;;;2.58;1.90;;;;;;;17.44;93.21;101557.19;5095237;28;20023;-83
2022/09/20 00:55:10;;;;;;;2.90;1.70;;;;;;;17.39;94.07;101552.22;5095214;28;20055;-83
2022/09/20 00:57:37;;;;;;;2.65;1.75;;;;;;;17.45;93.42;101559.69;5094924;28;20450;-83
2022/09/20 01:00:09;;;;;;;3.05;1.63;;;;;;;17.48;93.83;101552.47;5095173;28;20095;-83
2022/09/20 01:02:38;;;;;;;3.15;1.63;;;;;;;17.48;94.28;101555.97;5095344;28;20448;-83
2022/09/20 01:05:06;;;;;;;2.85;1.60;;;;;;;17.53;93.63;101555.59;5095228;28;20031;-82
2022/09/20 01:07:33;;;;;;;3.20;1.98;;;;;;;17.53;93.54;101552.94;5093565;28;20098;-82
2022/09/20 01:09:58;;;;;;;2.67;1.67;;;;;;;17.54;93.13;101558.13;5094846;28;20028;-83
2022/09/20 01:12:28;;;;;;;3.60;1.95;;;;;;;17.57;93.07;101552.56;5094731;28;20024;-82
2022/09/20 01:14:55;;;;;;;2.72;1.80;;;;;;;17.42;93.48;101565.25;5094928;28;20145;-83
2022/09/20 01:17:23;;;;;;;1.80;1.50;;;;;;;17.32;93.78;101561.63;5094724;28;20028;-83
2022/09/20 01:20:07;;;;;;;2.97;1.70;;;;;;;17.45;93.84;101566.81;5094996;28;20032;-83
2022/09/20 01:22:59;;;;;;;4.30;1.65;;;;;;;17.41;93.88;101563.56;5094815;28;20056;-83
2022/09/20 01:25:48;;;;;;;2.88;1.67;;;;;;;17.38;94.22;101561.16;5094720;28;20492;-83
2022/09/20 01:28:14;;;;;;;3.30;1.90;;;;;;;17.42;93.42;101562.59;5094554;28;20028;-83
2022/09/20 01:30:49;;;;;;;2.25;1.50;;;;;;;17.33;93.89;101558.00;5094505;28;20086;-83
2022/09/20 01:33:51;;;;;;;3.78;1.85;;;;;;;17.34;94.56;101556.22;5094484;28;20035;-83
2022/09/20 01:36:24;;;;;;;3.72;2.45;;;;;;;17.35;94.23;101556.06;5094732;28;20028;-83
2022/09/20 01:39:09;;;;;;;2.63;1.80;;;;;;;17.38;94.37;101569.13;5094497;28;20028;-83
2022/09/20 01:41:49;;;;;;;3.15;2.13;;;;;;;17.36;94.08;101559.59;5094217;28;20546;-83
2022/09/20 01:44:45;;;;;;;2.88;1.77;;;;;;;17.39;94.03;101565.47;5094310;28;20028;-83
2022/09/20 01:47:31;;;;;;;5.43;1.88;;;;;;;17.30;94.69;101563.56;5094245;28;20032;-83
2022/09/20 01:50:15;;;;;;;2.72;1.85;;;;;;;17.28;95.09;101568.16;5094187;28;20069;-83
2022/09/20 01:53:04;;;;;;;4.15;1.80;;;;;;;17.20;94.83;101570.53;5094116;28;20058;-83
2022/09/20 01:55:38;;;;;;;2.33;1.75;;;;;;;17.24;95.79;101566.72;5094316;28;20033;-82
2022/09/20 01:58:19;;;;;;;1.67;1.42;;;;;;;17.23;95.79;101568.50;5094062;28;20434;-82
2022/09/20 02:00:56;;;;;;;4.15;2.08;;;;;;;17.22;95.79;101558.84;5094126;28;20024;-82
2022/09/20 02:04:06;;;;;;;2.50;1.90;;;;;;;17.30;95.29;101563.56;5094165;28;20028;-82
2022/09/20 02:06:40;;;;;;;3.80;1.83;;;;;;;17.27;95.10;101566.44;5009713;28;20076;-82
2022/09/20 02:09:26;;;;;;;2.65;1.75;;;;;;;17.30;95.51;101570.66;5080793;28;20140;-82
2022/09/20 02:12:18;;;;;;;2.67;1.95;;;;;;;17.24;95.07;101567.53;5093835;28;20027;-83
2022/09/20 02:15:15;;;;;;;3.20;1.90;;;;;;;17.37;95.55;101566.56;5093912;28;20048;-83
2022/09/20 02:17:58;;;;;;;2.65;2.17;;;;;;;17.34;95.19;101572.97;5093530;28;20032;-83
2022/09/20 02:20:32;;;;;;;2.90;2.20;;;;;;;17.30;95.10;101566.22;5093742;28;20024;-82
2022/09/20 02:23:39;;;;;;;2.33;1.90;;;;;;;17.28;96.27;101554.88;5093418;28;20024;-83
2022/09/20 02:26:43;;;;;;;5.15;1.73;;;;;;;17.31;95.53;101557.28;5093447;28;20118;-82
2022/09/20 02:29:23;;;;;;;2.85;1.83;;;;;;;17.33;95.73;101558.00;5108403;28;20036;-84
2022/09/20 02:31:51;;;;;;;1.75;1.58;;;;;;;17.33;95.70;101563.31;5093481;28;20055;-82
2022/09/20 02:34:35;;;;;;;3.28;2.10;;;;;;;17.10;96.87;101565.13;5093269;28;20096;-82
2022/09/20 02:37:27;;;;;;;4.03;2.13;;;;;;;16.94;97.88;101554.84;5093218;28;20016;-82
2022/09/20 02:40:05;;;;;;;3.80;2.10;;;;;;;16.88;98.43;101551.78;5092970;28;20051;-82
2022/09/20 02:42:42;;;;;;;3.25;2.05;;;;;;;16.88;97.63;101554.44;5092882;28;20028;-82
2022/09/20 02:45:24;;;;;;;2.25;1.90;;;;;;;16.83;98.15;101560.13;5093062;28;20028;-83
2022/09/20 02:47:55;;;;;;;4.70;1.80;;;;;;;16.80;98.49;101555.84;5092999;28;20012;-83
2022/09/20 02:50:53;;;;;;;2.95;2.08;;;;;;;16.81;98.37;101549.63;5092911;28;20098;-83
2022/09/20 02:53:30;;;;;;;4.00;2.22;;;;;;;16.82;98.98;101556.63;5092894;28;20024;-83
2022/09/20 02:56:24;;;;;;;3.83;2.33;;;;;;;16.69;100.00;101552.34;5091625;28;20024;-82
2022/09/20 02:58:56;;;;;;;6.40;2.20;;;;;;;16.82;99.51;101553.09;5092705;28;20031;-83
2022/09/20 03:01:34;;;;;;;3.42;2.47;;;;;;;16.89;99.21;101557.00;5093276;28;20028;-84
2022/09/20 03:04:40;;;;;;;3.95;3.08;;;;;;;16.94;98.85;101552.19;5091926;28;20027;-84
2022/09/20 03:07:32;;;;;;;3.03;2.55;;;;;;;16.90;98.68;101548.06;5079658;28;20446;-82
2022/09/20 03:10:21;;;;;;;5.05;3.45;;;;;;;16.82;98.71;101547.81;5092500;28;20230;-82
2022/09/20 03:13:04;;;;;;;9.30;4.22;;;;;;;16.83;98.80;101538.91;5092669;28;20127;-84
2022/09/20 03:15:53;;;;;;;5.75;2.95;;;;;;;16.80;99.14;101547.03;5092822;28;20077;-83
2022/09/20 03:18:33;;;;;;;4.55;3.50;;;;;;;16.79;99.34;101546.19;5092480;28;20027;-83
2022/09/20 03:21:21;;;;;;;4.07;3.08;;;;;;;16.75;99.72;101538.59;5092315;28;20073;-83
2022/09/20 03:24:24;;;;;;;5.03;3.30;;;;;;;16.86;99.22;101541.28;5092371;28;20027;-83
2022/09/20 03:26:52;;;;;;;4.53;3.25;;;;;;;16.93;98.42;101537.22;5092235;28;20028;-83
2022/09/20 03:29:32;;;;;;;4.68;3.03;;;;;;;16.88;98.33;101528.75;5092137;28;20566;-83
2022/09/20 03:32:20;;;;;;;5.15;3.83;;;;;;;16.79;98.44;101535.59;5091003;28;20028;-83
2022/09/20 03:35:05;;;;;;;6.50;4.45;;;;;;;16.65;98.49;101531.34;5092196;28;20028;-83
2022/09/20 03:37:42;;;;;;;6.85;4.82;;;;;;;16.58;97.91;101527.44;5092122;28;20016;-83
2022/09/20 03:40:25;;;;;;;8.23;4.85;;;;;;;16.24;98.02;101535.28;5092066;28;20103;-83
2022/09/20 03:42:52;;;;;;;6.25;4.80;;;;;;;16.08;98.72;101534.72;5091933;28;20024;-83
2022/09/20 03:46:00;;;;;;;7.70;4.93;;;;;;;16.02;99.23;101532.53;5092194;28;20496;-83
2022/09/20 03:48:35;;;;;;;5.95;3.92;;;;;;;15.69;99.83;101523.38;5092196;28;20144;-83
2022/09/20 03:51:27;;;;;;;4.57;3.30;;;;;;;15.60;99.53;101526.66;5091862;28;20024;-83
2022/09/20 03:53:56;;;;;;;;;;;;;;;15.39;99.31;101527.25;5092436;28;20021;-83
2022/09/20 03:56:30;;;;;;;5.05;3.67;;;;;;;15.25;100.00;101524.72;5091862;28;20377;-82
2022/09/20 03:59:21;;;;;;;3.03;2.22;;;;;;;15.19;100.00;101520.72;5092037;28;20032;-83
2022/09/20 04:02:28;;;;;;;4.50;2.90;;;;;;;15.26;100.00;101519.34;5090599;28;20057;-83
2022/09/20 04:05:09;;;;;;;2.80;2.58;;;;;;;15.29;99.45;101523.56;5064248;28;20051;-82
2022/09/20 04:07:56;;;;;;;4.10;3.00;;;;;;;15.24;99.43;101517.75;5091959;28;20386;-83
2022/09/20 04:10:52;;;;;;;4.95;2.90;;;;;;;14.90;100.00;101520.06;5091960;28;20734;-83
2022/09/20 04:13:30;;;;;;;4.55;2.83;;;;;;;14.96;99.76;101511.72;5091705;28;20107;-83
2022/09/20 04:16:12;;;;;;;4.03;3.17;;;;;;;14.74;100.00;101524.72;5092351;28;20020;-83
2022/09/20 04:18:56;;;;;;;5.43;3.22;;;;;;;14.37;100.00;101527.97;5095884;28;20035;-83
2022/09/20 04:21:34;;;;;;;4.20;3.03;;;;;;;14.35;100.00;101526.41;5095946;28;20088;-82
2022/09/20 04:24:12;;;;;;;3.53;2.88;;;;;;;14.12;100.00;101523.47;5094480;28;20050;-82
2022/09/20 04:26:46;;;;;;;3.50;2.80;;;;;;;13.90;100.00;101518.72;5095578;28;20028;-82
2022/09/20 04:29:23;;;;;;;3.80;3.20;;;;;;;13.89;100.00;101517.88;5095598;28;20492;-83
2022/09/20 04:32:13;;;;;;;5.18;3.10;;;;;;;13.87;100.00;101516.28;5095603;28;20028;-83
2022/09/20 04:37:37;;;;;;;6.15;3.90;;;;;;;13.82;100.00;101516.59;5095880;28;20107;-83
2022/09/20 04:40:30;;;;;;;5.82;3.53;;;;;;;14.01;100.00;101510.13;5094256;28;20012;-83
2022/09/20 04:43:23;;;;;;;3.78;3.25;;;;;;;13.97;100.00;101521.81;5095267;28;20391;-83
2022/09/20 04:46:10;;;;;;;4.55;3.50;;;;;;;14.01;100.00;101518.03;5095444;28;20025;-83
2022/09/20 04:49:00;;;;;;;4.45;2.92;;;;;;;13.99;100.00;101519.94;5095210;28;20036;-83
2022/09/20 04:51:41;;;;;;;5.25;3.40;;;;;;;13.99;100.00;101518.13;5095222;28;20039;-83
2022/09/20 04:54:18;;;;;;;3.42;2.95;;;;;;;14.10;100.00;101528.03;5095248;28;20508;-83
2022/09/20 04:56:43;;;;;;;4.72;3.60;;;;;;;13.86;100.00;101520.72;5093800;28;20393;-83
2022/09/20 04:59:13;;;;;;;5.15;4.30;;;;;;;13.69;100.00;101523.59;5095046;28;20103;-83
2022/09/20 05:02:02;;;;;;;4.65;3.90;;;;;;;13.81;100.00;101524.59;5095042;28;20031;-83
2022/09/20 05:04:46;;;;;;;6.20;3.70;;;;;;;14.08;100.00;101529.91;5095046;28;20157;-83
2022/09/20 05:07:24;;;;;;;4.55;3.53;;;;;;;14.37;98.71;101535.06;5095063;28;20032;-83
2022/09/20 05:10:14;;;;;;;4.80;3.75;;;;;;;14.35;98.38;101529.03;5094772;28;20024;-83
2022/09/20 05:12:55;;;;;;;5.78;3.58;;;;;;;14.38;99.39;101527.06;5094902;28;20028;-83
2022/09/20 05:15:35;;;;;;;5.72;3.75;;;;;;;14.27;99.50;101538.31;5094780;28;19912;-83
2022/09/20 05:18:33;;;;;;;4.80;3.83;;;;;;;14.26;99.77;101528.69;5094892;28;20038;-83
2022/09/20 05:21:23;;;;;;;5.93;3.67;;;;;;;14.22;99.79;101544.88;5094581;28;20027;-83
2022/09/20 05:24:10;;;;;;;4.90;4.05;;;;;;;14.31;99.19;101549.53;5094578;28;20039;-83
2022/09/20 05:26:50;;;;;;;5.90;3.45;;;;;;;14.22;99.52;101545.69;5094051;28;20024;-83
2022/09/20 05:29:27;;;;;;;4.40;3.38;;;;;;;14.32;99.00;101539.81;5094408;28;20022;-83
2022/09/20 05:32:17;;;;;;;5.28;3.92;;;;;;;14.31;99.30;101546.03;5094436;28;20028;-83
2022/09/20 05:35:00;;;;;;;5.10;3.50;;;;;;;13.99;100.00;101547.19;5094344;28;20124;-83
2022/09/20 05:37:31;;;;;;;7.35;3.63;;;;;;;13.86;100.00;101544.50;5094258;28;20016;-83
2022/09/20 05:40:15;;;;;;;5.05;3.88;;;;;;;14.06;100.00;101545.84;5094354;28;20559;-83
2022/09/20 05:42:54;;;;;;;5.38;4.13;;;;;;;14.21;99.71;101549.28;5094507;28;20028;-83
2022/09/20 05:45:28;;;;;;;4.95;3.22;;;;;;;14.19;99.68;101551.16;5092798;28;20027;-83
2022/09/20 05:48:17;;;;;;;7.22;4.18;;;;;;;14.07;100.00;101554.63;5093952;28;20024;-83
2022/09/20 05:50:54;;;;;;;10.52;4.03;;;;;;;14.00;100.00;101555.94;5094071;28;20085;-89
2022/09/20 05:53:38;;;;;;;6.22;4.13;;;;;;;13.99;100.00;101554.25;5109805;28;20118;-85
2022/09/20 05:56:21;;;;;;;7.00;4.05;;;;;;;14.04;100.00;101555.66;5094012;28;20462;-85
2022/09/20 05:59:04;;;;;;;4.95;3.63;;;;;;;14.12;100.00;101560.47;5094016;28;20027;-85
2022/09/20 06:01:32;;;;;;;5.28;3.65;;;;;;;14.25;100.00;101568.41;5093948;28;20024;-84
2022/09/20 06:04:16;;;;;;;6.43;4.00;;;;;;;14.37;100.00;101574.69;5093144;28;20477;-84
2022/09/20 06:07:25;;;;;;;5.13;3.92;;;;;;;14.59;100.00;101568.88;5093683;28;20028;-85
2022/09/20 06:10:21;;;;;;;4.70;4.03;;;;;;;14.80;100.00;101571.91;5093698;28;20093;-85
2022/09/20 06:12:52;;;;;;;5.68;4.18;;;;;;;14.92;99.83;101575.50;5083878;28;20039;-84
2022/09/20 06:15:37;;;;;;;6.43;4.50;;;;;;;15.15;100.00;101585.38;5092967;28;20031;-84
2022/09/20 06:18:27;;;;;;;7.82;3.83;;;;;;;15.23;100.00;101584.84;5093597;28;20028;-94
2022/09/20 06:21:03;;;;;;;6.43;4.85;;;;;;;15.47;100.00;101583.13;5092045;28;20027;-85
2022/09/20 06:23:31;;;;;;;6.32;4.43;;;;;;;15.54;100.00;101591.50;5093408;28;20043;-85
2022/09/20 06:26:06;;;;;;;7.57;5.10;;;;;;;15.50;100.00;101591.81;5093019;28;20063;-84
2022/09/20 06:28:41;;;;;;;8.20;4.78;;;;;;;15.65;99.35;101591.56;5092757;28;20073;-85
2022/09/20 06:31:07;;;;;;;4.97;3.95;;;;;;;15.74;98.33;101595.44;5093316;28;20074;-84
2022/09/20 06:33:41;;;;;;;8.65;5.30;;;;;;;15.96;98.74;101591.25;5093344;28;20068;-84
2022/09/20 06:42:14;;;;;;;6.82;4.13;;;;;;;16.31;97.35;101603.72;5089976;28;20039;-84
2022/09/20 06:44:42;;;;;;;6.50;3.65;;;;;;;16.46;94.43;101607.91;5093471;28;20439;-84
2022/09/20 06:47:11;;;;;;;6.18;4.10;;;;;;;16.65;96.17;101602.09;5093815;28;20024;-84
2022/09/20 06:49:38;;;;;;;4.47;3.67;;;;;;;17.01;94.20;101608.28;5094452;28;20031;-84
2022/09/20 06:52:05;;;;;;;4.70;3.92;;;;;;;17.30;93.79;101608.69;5092916;28;20096;-84
2022/09/20 06:54:32;;;;;;;4.35;3.53;;;;;;;17.54;93.52;101605.94;5093104;28;20023;-84
2022/09/20 06:57:02;;;;;;;7.35;4.05;;;;;;;17.49;90.94;101602.78;5093504;28;20391;-84
2022/09/20 06:59:27;;;;;;;;;;;;;;;17.76;93.12;101605.06;5094885;28;19912;-84
2022/09/20 07:01:52;;;;;;;5.15;3.70;;;;;;;18.12;91.98;101600.47;5089213;28;19912;-85
2022/09/20 07:04:18;;;;;;;5.13;3.60;;;;;;;18.75;88.77;101597.13;5083211;28;20032;-85
2022/09/20 07:06:43;;;;;;;6.43;4.35;;;;;;;19.00;87.82;101606.56;5094158;28;20031;-85
2022/09/20 07:09:10;;;;;;;9.45;5.35;;;;;;;19.00;83.90;101602.09;5092204;28;20046;-86
2022/09/20 07:11:35;;;;;;;9.95;4.85;;;;;;;19.09;83.69;101605.78;5094522;28;20077;-85
2022/09/20 07:14:01;;;;;;;9.70;4.82;;;;;;;19.38;84.24;101610.44;5096849;28;20036;-86
2022/09/20 07:16:26;;;;;;;;;;;;;;;19.67;80.13;101607.91;5093393;28;20486;-86
2022/09/20 07:18:51;;;;;;;;;;;;;;;19.98;79.70;101613.22;5096080;28;20366;-85
2022/09/20 07:21:17;;;;;;;;;;;;;;;20.08;79.03;101608.75;5095712;28;19920;-87
2022/09/20 07:23:44;;;;;;;;;;;;;;;20.46;77.01;101612.47;5095441;28;20354;-86
2022/09/20 07:26:29;;;;;;;;;;;;;;;20.45;74.93;101615.28;5096427;28;19919;-84
2022/09/20 07:28:54;;;;;;;;;;;;;;;20.56;74.74;101618.66;5092955;28;19912;-85
2022/09/20 07:31:21;;;;;;;;;;;;;;;20.44;73.83;101614.44;5091820;28;20461;-86
2022/09/20 07:33:46;;;;;;;;;;;;;;;20.56;74.53;101615.97;5094673;28;19958;-86
2022/09/20 07:36:12;;;;;;;;;;;;;;;20.77;74.13;101617.69;5094511;28;19924;-85
2022/09/20 07:38:38;;;;;;;;;;;;;;;20.96;73.07;101612.31;5090736;28;20016;-85
2022/09/20 07:41:04;;;;;;;8.43;5.03;;;;;;;21.10;72.21;101615.53;5092148;28;20076;-85
2022/09/20 07:43:30;;;;;;;6.35;4.93;;;;;;;21.32;71.55;101615.19;5092673;28;20048;-85
2022/09/20 07:45:58;;;;;;;11.27;5.55;;;;;;;21.21;70.01;101610.03;5092075;28;20110;-85
2022/09/20 07:48:35;;;;;;;5.72;5.07;;;;;;;21.48;70.71;101613.78;5092325;28;20016;-85
2022/09/20 07:51:03;;;;;;;7.10;5.20;;;;;;;21.65;68.90;101620.19;5090699;28;20020;-85
2022/09/20 07:53:29;;;;;;;6.40;4.90;;;;;;;21.92;68.50;101612.19;5092506;28;20071;-85
2022/09/20 07:55:59;;;;;;;10.60;5.80;;;;;;;22.00;67.36;101616.78;5092369;28;20115;-85
2022/09/20 07:58:24;;;;;;;;;;;;;;;21.68;67.18;101626.09;5092420;28;19912;-85
2022/09/20 08:00:50;;;;;;;;;;;;;;;21.99;67.95;101626.63;5091999;28;19912;-85
2022/09/20 08:03:16;;;;;;;;;;;;;;;21.90;66.85;101632.88;5090402;28;20014;-85
2022/09/20 08:05:42;;;;;;;;;;;;;;;21.78;68.32;101626.88;5092145;28;20002;-85
2022/09/20 08:08:07;;;;;;;;;;;;;;;21.94;68.36;101630.75;5092356;28;20005;-85
2022/09/20 08:10:32;;;;;;;;;;;;;;;21.60;68.22;101639.31;5092213;28;20389;-85
2022/09/20 08:12:58;;;;;;;;;;;;;;;21.63;68.85;101630.19;5091146;28;19968;-84
2022/09/20 08:15:23;;;;;;;;;;;;;;;21.90;67.14;101630.19;5091694;28;19911;-86
2022/09/20 08:17:49;;;;;;;;;;;;;;;22.25;66.20;101633.13;5090598;28;19916;-85
2022/09/20 08:20:14;;;;;;;;;;;;;;;23.19;64.32;101631.81;5091730;28;19912;-86
2022/09/20 08:22:42;;;;;;;;;;;;;;;24.30;60.61;101635.31;5091695;28;19919;-86
2022/09/20 08:25:07;;;;;;;;;;;;;;;26.12;54.52;101631.41;5091554;28;19969;-85
2022/09/20 08:27:32;;;;;;;;;;;;;;;27.00;50.27;101631.97;5090409;28;19916;-86
2022/09/20 08:29:57;;;;;;;;;;;;;;;28.27;45.86;101639.94;5091776;28;20240;-86
2022/09/20 08:32:23;;;;;;;;;;;;;;;30.78;40.47;101629.91;5091264;28;19912;-86
2022/09/20 08:34:48;;;;;;;;;;;;;;;32.49;37.43;101627.91;5091029;28;20003;-86
2022/09/20 08:37:14;;;;;;;;;;;;;;;33.75;34.04;101635.94;5091687;28;20366;-86
2022/09/20 08:39:39;;;;;;;;;;;;;;;32.84;35.19;101634.75;5092408;28;19962;-86
2022/09/20 08:42:27;;;;;;;;;;;;;;;35.13;31.28;101625.84;5092350;28;20014;-86
2022/09/20 08:44:55;;;;;;;;;;;;;;;36.29;29.93;101622.19;5084166;28;19912;-86
2022/09/20 08:47:23;;;;;;;;;;;;;;;38.51;27.53;101613.00;5092485;28;20258;-87
2022/09/20 08:49:51;;;;;;;;;;;;;;;41.69;23.69;101601.59;5092351;28;20274;-88
2022/09/20 08:52:20;;;;;;;;;;;;;;;43.12;22.02;101599.50;5092609;28;19918;-88
2022/09/20 08:54:46;;;;;;;;;;;;;;;44.43;20.35;101607.25;5092210;28;19914;-86
2022/09/20 08:57:14;;;;;;;;;;;;;;;45.69;19.59;101595.84;5091117;28;19916;-87
2022/09/20 08:59:39;;;;;;;;;;;;;;;46.64;18.20;101605.94;5092337;28;19916;-86
2022/09/20 09:02:12;;;;;;;;;;;;;;;47.78;17.96;101602.28;5092752;28;20059;-86
2022/09/20 09:04:37;;;;;;;;;;;;;;;47.46;18.13;101598.81;5096202;28;19916;-87
2022/09/20 09:07:03;;;;;;;;;;;;;;;43.42;20.28;101616.84;5096013;28;19912;-86
2022/09/20 09:09:29;;;;;;;;;;;;;;;40.95;21.81;101615.09;5096222;28;20250;-86
2022/09/20 09:11:55;;;;;;;;;;;;;;;38.04;25.11;101625.47;5105229;28;19919;-86
2022/09/20 09:17:09;;;;;;;;;;;;;;;34.57;28.04;101622.59;5095616;28;19919;-86
2022/09/20 09:19:44;;;;;;;;;;;;;;;32.79;31.34;101625.38;5095715;28;20010;-88
2022/09/20 09:22:10;;;;;;;;;;;;;;;32.47;31.26;101629.19;5095748;28;19954;-85
2022/09/20 09:24:35;;;;;;;;;;;;;;;32.66;31.72;101627.38;5095455;28;19912;-85
2022/09/20 09:27:19;;;;;;;;;;;;;;;32.39;31.74;101622.13;5095746;28;19912;-85
2022/09/20 09:29:49;;;;;;;;;;;;;;;34.32;29.76;101614.63;5090283;28;19923;-88
2022/09/20 09:32:19;;;;;;;;;;;;;;;35.99;27.99;101621.63;5096291;28;19916;-88
2022/09/20 09:34:44;;;;;;;;;;;;;;;34.14;29.49;101629.16;5095199;28;20358;-85
2022/09/20 09:37:21;;;;;;;;;;;;;;;35.71;28.42;101629.56;5095465;28;19956;-86
2022/09/20 09:39:46;;;;;;;;;;;;;;;34.98;28.63;101627.41;5095107;28;19919;-86
2022/09/20 09:42:19;;;;;;;;;;;;;;;33.66;30.07;101635.41;5095055;28;19920;-86
2022/09/20 09:44:49;;;;;;;;;;;;;;;32.20;31.70;101640.22;5094940;28;20373;-85
2022/09/20 09:47:27;;;;;;;;;;;;;;;31.05;33.12;101631.81;5094955;28;19916;-85
2022/09/20 09:49:56;;;;;;;;;;;;;;;30.52;33.37;101632.63;5094979;28;19988;-85
2022/09/20 09:52:24;;;;;;;;;;;;;;;30.46;33.53;101636.16;5095180;28;19919;-86
2022/09/20 09:54:57;;;;;;;;;;;;;;;30.69;34.05;101628.47;5094588;28;19912;-85
2022/09/20 09:57:32;;;;;;;;;;;;;;;30.00;33.93;101630.41;5094392;28;20262;-85
2022/09/20 10:00:05;;;;;;;;;;;;;;;30.49;34.52;101633.03;5093419;28;20033;-85
2022/09/20 10:02:49;;;;;;;;;;;;;;;30.43;34.18;101632.84;5094616;28;19912;-85
2022/09/20 10:05:17;;;;;;;;;;;;;;;31.19;32.18;101634.28;5094568;28;20028;-85
2022/09/20 10:07:43;;;;;;;;;;;;;;;32.30;31.28;101628.88;5094387;28;20006;-85
2022/09/20 10:10:27;;;;;;;;;;;;;;;31.42;32.48;101633.00;5094772;28;20092;-85
2022/09/20 10:12:53;;;;;;;;;;;;;;;30.48;33.26;101634.91;5094040;28;19912;-85
2022/09/20 10:15:25;;;;;;;;;;;;;;;30.30;33.21;101626.53;5094534;28;19925;-85
2022/09/20 10:18:10;;;;;;;;;;;;;;;29.33;34.53;101631.94;5094037;28;20018;-85
2022/09/20 10:20:52;;;;;;;;;;;;;;;29.95;34.07;101635.59;5094146;28;19915;-85
2022/09/20 10:23:36;;;;;;;;;;;;;;;30.07;33.26;101635.84;5098787;28;20397;-86
2022/09/20 10:26:12;;;;;;;;;;;;;;;31.54;31.55;101625.91;5097899;28;19980;-86
2022/09/20 10:28:47;;;;;;;3.03;1.60;;;;;;;31.95;30.93;101631.97;5093353;28;19908;-86
2022/09/20 10:31:47;;;;;;;4.70;2.08;;;;;;;31.43;30.55;101634.66;5093587;28;20024;-86
2022/09/20 10:34:57;;;;;;;3.33;1.95;;;;;;;31.32;30.75;101629.88;5092019;28;20020;-86
2022/09/20 10:37:47;;;;;;;3.28;1.80;;;;;;;31.79;30.34;101627.88;5055039;28;20039;-86
2022/09/20 10:40:25;;;;;;;3.30;2.03;;;;;;;31.57;29.88;101636.31;5093302;28;20085;-86
2022/09/20 10:43:14;;;;;;;2.03;1.45;;;;;;;31.97;30.76;101633.44;5093362;28;20047;-86
2022/09/20 10:45:57;;;;;;;1.63;1.30;;;;;;;31.54;30.47;101631.31;5093304;28;20043;-86
2022/09/20 10:48:40;;;;;;;4.70;1.40;;;;;;;32.66;29.44;101630.09;5092823;28;20034;-87
2022/09/20 10:51:38;;;;;;;2.10;1.20;;;;;;;32.51;29.29;101625.81;5093165;28;20024;-87
2022/09/20 10:54:03;;;;;;;;;;;;;;;33.34;27.33;101629.28;5075773;28;20044;-86
2022/09/20 10:56:36;;;;;;;;;;;;;;;33.29;27.58;101621.78;5093595;28;20049;-86
2022/09/20 10:59:16;;;;;;;;;;;;;;;33.57;27.34;101626.72;5093326;28;19947;-87
2022/09/20 11:01:54;;;;;;;;;;;;;;;33.35;26.83;101620.03;5093418;28;20382;-87
2022/09/20 11:04:47;;;;;;;;;;;;;;;33.53;27.58;101622.78;5092912;28;20050;-87
2022/09/20 11:07:25;;;;;;;;;;;;;;;33.80;26.49;101621.63;5092833;28;20469;-87
2022/09/20 11:09:54;;;;;;;;;;;;;;;33.59;26.78;101619.16;5090039;28;19923;-87
2022/09/20 11:12:28;;;;;;;;;;;;;;;33.13;26.96;101617.75;5088576;28;20396;-87
2022/09/20 11:14:58;;;;;;;;;;;;;;;33.54;26.29;101616.25;5093013;28;19943;-87
2022/09/20 11:17:50;;;;;;;;;;;;;;;33.25;26.64;101617.84;5092875;28;19916;-87
2022/09/20 11:20:20;;;;;;;;;;;;;;;33.44;25.84;101618.69;5068795;28;19946;-87
2022/09/20 11:22:49;;;;;;;;;;;;;;;33.64;26.26;101614.94;5092561;28;20003;-87
2022/09/20 11:25:27;;;;;;;;;;;;;;;34.37;25.77;101609.28;5089441;28;19970;-87
2022/09/20 11:27:57;;;;;;;;;;;;;;;34.43;25.49;101606.69;5092745;28;19912;-87
2022/09/20 11:30:22;;;;;;;;;;;;;;;38.06;22.95;101600.56;5092655;28;19965;-87
2022/09/20 11:33:07;;;;;;;;;;;;;;;36.83;23.65;101599.00;5096549;28;19911;-87
2022/09/20 11:35:34;;;;;;;;;;;;;;;36.21;24.00;101600.72;5112662;28;20280;-87
2022/09/20 11:38:16;;;;;;;;;;;;;;;37.09;22.50;101602.94;5102101;28;19964;-87
2022/09/20 11:40:48;;;;;;;;;;;;;;;37.16;23.53;101592.63;5092713;28;19916;-87
2022/09/20 11:43:14;;;;;;;;;;;;;;;34.66;25.15;101597.72;5092202;28;19922;-87
2022/09/20 11:45:42;;;;;;;;;;;;;;;34.33;25.49;101605.38;5092279;28;20210;-87
2022/09/20 11:48:20;;;;;;;;;;;;;;;36.42;24.30;101599.19;5092444;28;19932;-87
2022/09/20 11:50:55;;;;;;;;;;;;;;;37.39;23.31;101599.78;5092512;28;19969;-87
2022/09/20 11:53:27;;;;;;;;;;;;;;;37.29;23.18;101591.44;5092713;28;19912;-87
2022/09/20 11:55:57;;;;;;;;;;;;;;;37.03;23.66;101598.44;5091482;28;19959;-87
2022/09/20 11:58:24;;;;;;;;;;;;;;;36.66;23.08;101599.84;5094796;28;20425;-87
2022/09/20 12:00:53;;;;;;;;;;;;;;;35.80;23.86;101608.16;5090206;28;19920;-87
2022/09/20 12:03:25;;;;;;;;;;;;;;;36.63;22.99;101594.00;5091264;28;19916;-87
2022/09/20 12:05:58;;;;;;;;;;;;;;;35.05;24.93;101590.72;5087622;28;19928;-87
2022/09/20 12:08:26;;;;;;;;;;;;;;;32.10;26.56;101599.13;5091628;28;20322;-87
2022/09/20 12:11:03;;;;;;;;;;;;;;;31.32;28.27;101595.47;5091363;28;19916;-87
2022/09/20 12:13:29;;;;;;;;;;;;;;;30.95;28.13;101597.81;5089002;28;19916;-87
2022/09/20 12:16:14;;;;;;;;;;;;;;;30.79;28.68;101607.19;5091517;28;20003;-86
2022/09/20 12:18:46;;;;;;;;;;;;;;;30.29;30.28;101603.16;5087742;28;19973;-86
2022/09/20 12:21:16;;;;;;;;;;;;;;;30.67;28.72;101608.88;5090988;28;19916;-87
2022/09/20 12:23:42;;;;;;;;;;;;;;;29.91;29.93;101604.53;5091206;28;19916;-86
2022/09/20 12:26:12;;;;;;;;;;;;;;;29.49;31.12;101603.72;5091374;28;19970;-86
2022/09/20 12:28:41;;;;;;;;;;;;;;;30.07;30.60;101595.22;5091194;28;19923;-86
2022/09/20 12:31:36;;;;;;;;;;;;;;;30.50;30.13;101603.03;5091125;28;19990;-86
2022/09/20 12:34:03;;;;;;;;;;;;;;;30.89;30.70;101600.56;5089997;28;19961;-86
2022/09/20 12:36:34;;;;;;;;;;;;;;;30.89;32.16;101595.97;5092114;28;19916;-86
2022/09/20 12:39:12;;;;;;;;;;;;;;;31.34;30.85;101601.50;5094926;28;19915;-86
2022/09/20 12:41:44;;;;;;;;;;;;;;;30.37;31.04;101603.00;5094534;28;20388;-86
2022/09/20 12:44:21;;;;;;;;;;;;;;;31.30;29.22;101596.69;5095506;28;19916;-86
2022/09/20 12:47:10;;;;;;;;;;;;;;;31.50;28.75;101592.09;5095621;28;19911;-86